createdAt,value
2019-04-10T00:00:49.174Z,9.24
2019-04-10T00:03:28.103Z,9.20
2019-04-10T00:05:49.924Z,9.16
2019-04-10T00:08:19.823Z,9.16
2019-04-10T00:10:48.752Z,9.13
2019-04-10T00:13:18.427Z,9.11
2019-04-10T00:15:47.386Z,9.12
2019-04-10T00:18:20.005Z,9.13
2019-04-10T00:20:49.178Z,9.09
2019-04-10T00:23:19.223Z,9.08
2019-04-10T00:25:48.789Z,9.08
2019-04-10T00:28:17.647Z,9.07
2019-04-10T00:30:49.491Z,9.01
2019-04-10T00:33:18.814Z,9.00
2019-04-10T00:35:47.824Z,8.96
2019-04-10T00:38:18.610Z,8.93
2019-04-10T00:40:49.942Z,8.89
2019-04-10T00:43:19.060Z,8.83
2019-04-10T00:45:47.913Z,8.81
2019-04-10T00:48:17.498Z,8.79
2019-04-10T00:50:46.621Z,8.76
2019-04-10T00:53:15.554Z,8.72
2019-04-10T00:55:44.444Z,8.68
2019-04-10T00:58:14.100Z,8.64
2019-04-10T01:00:43.358Z,8.58
2019-04-10T01:03:15.648Z,8.57
2019-04-10T01:05:46.967Z,8.50
2019-04-10T01:08:16.126Z,8.47
2019-04-10T01:10:44.956Z,8.44
2019-04-10T01:13:16.732Z,8.44
2019-04-10T01:15:45.494Z,8.39
2019-04-10T01:18:15.081Z,8.39
2019-04-10T01:20:44.024Z,8.34
2019-04-10T01:23:13.992Z,8.41
2019-04-10T01:25:42.999Z,8.34
2019-04-10T01:28:12.266Z,8.29
2019-04-10T01:30:42.310Z,8.28
2019-04-10T01:33:11.193Z,8.28
2019-04-10T01:35:40.473Z,8.26
2019-04-10T01:38:09.332Z,8.23
2019-04-10T01:40:39.305Z,8.19
2019-04-10T01:43:14.523Z,8.12
2019-04-10T01:45:41.862Z,8.09
2019-04-10T01:48:10.695Z,8.09
2019-04-10T01:50:39.726Z,8.06
2019-04-10T01:53:11.106Z,8.06
2019-04-10T01:55:40.909Z,8.05
2019-04-10T01:58:14.244Z,8.04
2019-04-10T02:00:52.099Z,8.01
2019-04-10T02:03:22.046Z,7.96
2019-04-10T02:05:51.159Z,7.93
2019-04-10T02:08:20.045Z,7.90
2019-04-10T02:10:49.932Z,7.88
2019-04-10T02:13:19.179Z,7.86
2019-04-10T02:15:48.276Z,7.83
2019-04-10T02:18:17.295Z,7.83
2019-04-10T02:20:47.357Z,7.79
2019-04-10T02:23:19.345Z,7.76
2019-04-10T02:25:49.392Z,7.71
2019-04-10T02:28:20.718Z,7.68
2019-04-10T02:30:50.174Z,7.64
2019-04-10T02:33:21.159Z,7.67
2019-04-10T02:35:50.356Z,7.64
2019-04-10T02:38:35.927Z,7.58
2019-04-10T02:40:50.169Z,7.56
2019-04-10T02:43:19.122Z,7.54
2019-04-10T02:45:49.394Z,7.54
2019-04-10T02:48:19.411Z,7.54
2019-04-10T02:50:49.283Z,7.53
2019-04-10T02:53:19.600Z,7.51
2019-04-10T02:55:49.322Z,7.49
2019-04-10T02:58:18.820Z,7.44
2019-04-10T03:00:51.878Z,7.41
2019-04-10T03:03:20.092Z,7.39
2019-04-10T03:05:49.010Z,7.36
2019-04-10T03:08:17.898Z,7.34
2019-04-10T03:10:50.593Z,7.33
2019-04-10T03:13:17.876Z,7.32
2019-04-10T03:15:47.636Z,7.30
2019-04-10T03:18:16.868Z,7.27
2019-04-10T03:20:46.723Z,7.24
2019-04-10T03:23:15.676Z,7.24
2019-04-10T03:25:45.559Z,7.20
2019-04-10T03:28:14.600Z,7.19
2019-04-10T03:30:44.316Z,7.17
2019-04-10T03:33:36.010Z,7.18
2019-04-10T03:36:03.843Z,7.19
2019-04-10T03:38:32.893Z,7.23
2019-04-10T03:41:02.042Z,7.19
2019-04-10T03:43:32.007Z,7.15
2019-04-10T03:46:01.296Z,7.16
2019-04-10T03:48:31.312Z,7.15
2019-04-10T03:51:00.589Z,7.15
2019-04-10T03:53:29.928Z,7.15
2019-04-10T03:55:59.217Z,7.15
2019-04-10T03:58:28.041Z,7.14
2019-04-10T04:00:57.062Z,7.12
2019-04-10T04:03:26.777Z,7.12
2019-04-10T04:05:55.690Z,7.11
2019-04-10T04:08:25.652Z,7.10
2019-04-10T04:10:55.216Z,7.09
2019-04-10T04:13:24.050Z,7.09
2019-04-10T04:15:54.684Z,7.09
2019-04-10T04:18:24.787Z,7.08
2019-04-10T04:20:53.810Z,7.07
2019-04-10T04:23:22.973Z,7.06
2019-04-10T04:25:51.932Z,7.02
2019-04-10T04:28:21.267Z,7.01
2019-04-10T04:30:53.069Z,7.01
2019-04-10T04:33:21.175Z,7.01
2019-04-10T04:35:51.081Z,7.01
2019-04-10T04:38:20.065Z,7.00
2019-04-10T04:40:49.087Z,7.00
2019-04-10T04:43:18.731Z,7.00
2019-04-10T04:45:48.370Z,6.99
2019-04-10T04:48:17.424Z,7.00
2019-04-10T04:50:47.408Z,7.01
2019-04-10T04:53:16.394Z,7.02
2019-04-10T04:55:45.295Z,7.04
2019-04-10T04:58:14.144Z,7.06
2019-04-10T05:00:43.132Z,7.07
2019-04-10T05:03:12.562Z,7.10
2019-04-10T05:05:41.679Z,7.11
2019-04-10T05:08:13.102Z,7.15
2019-04-10T05:10:42.491Z,7.16
2019-04-10T05:13:11.405Z,7.17
2019-04-10T05:15:40.846Z,7.19
2019-04-10T05:18:10.422Z,7.21
2019-04-10T05:20:45.929Z,7.23
2019-04-10T05:23:10.343Z,7.25
2019-04-10T05:25:39.276Z,7.29
2019-04-10T05:28:08.266Z,7.31
2019-04-10T05:30:41.036Z,7.39
2019-04-10T05:33:09.962Z,7.45
2019-04-10T05:35:39.792Z,7.53
2019-04-10T05:38:08.714Z,7.60
2019-04-10T05:40:37.624Z,7.66
2019-04-10T05:43:06.557Z,7.72
2019-04-10T05:45:35.510Z,7.79
2019-04-10T05:48:04.466Z,7.86
2019-04-10T05:50:33.560Z,7.88
2019-04-10T05:53:02.463Z,7.92
2019-04-10T05:55:31.241Z,8.00
2019-04-10T05:58:00.153Z,8.03
2019-04-10T06:00:29.108Z,8.07
2019-04-10T06:02:58.470Z,8.14
2019-04-10T06:05:27.298Z,8.24
2019-04-10T06:07:57.176Z,8.26
2019-04-10T06:10:26.701Z,8.36
2019-04-10T06:12:58.445Z,8.38
2019-04-10T06:15:28.651Z,8.38
2019-04-10T06:17:58.675Z,8.32
2019-04-10T06:20:27.556Z,8.41
2019-04-10T06:22:56.588Z,8.41
2019-04-10T06:25:25.808Z,8.39
2019-04-10T06:27:54.842Z,8.43
2019-04-10T06:30:23.938Z,8.47
2019-04-10T06:32:53.843Z,8.51
2019-04-10T06:35:23.937Z,8.51
2019-04-10T06:37:53.121Z,8.54
2019-04-10T06:40:24.217Z,8.57
2019-04-10T06:42:54.889Z,8.60
2019-04-10T06:45:24.008Z,8.59
2019-04-10T06:47:52.975Z,8.62
2019-04-10T06:50:23.183Z,8.67
2019-04-10T06:52:52.082Z,8.69
2019-04-10T06:55:21.617Z,8.70
2019-04-10T06:57:55.045Z,8.82
2019-04-10T07:00:21.528Z,8.93
2019-04-10T07:02:50.670Z,9.03
2019-04-10T07:05:19.949Z,9.18
2019-04-10T07:07:53.570Z,9.46
2019-04-10T07:10:27.603Z,9.82
2019-04-10T07:12:51.204Z,10.23
2019-04-10T07:15:23.636Z,10.74
2019-04-10T07:17:51.299Z,11.53
2019-04-10T07:20:21.294Z,12.14
2019-04-10T07:22:51.326Z,12.39
2019-04-10T07:25:20.407Z,12.25
2019-04-10T07:27:50.303Z,12.31
2019-04-10T07:30:24.150Z,12.34
2019-04-10T07:32:51.038Z,12.37
2019-04-10T07:35:21.841Z,12.53
2019-04-10T07:37:54.331Z,12.64
2019-04-10T07:40:21.445Z,13.23
2019-04-10T07:42:50.731Z,13.29
2019-04-10T07:45:26.642Z,13.86
2019-04-10T07:47:52.242Z,14.15
2019-04-10T07:50:21.164Z,14.34
2019-04-10T07:52:50.140Z,14.37
2019-04-10T07:55:19.165Z,14.51
2019-04-10T07:57:49.255Z,14.18
2019-04-10T08:00:20.048Z,14.00
2019-04-10T08:02:49.178Z,13.58
2019-04-10T08:05:18.876Z,13.42
2019-04-10T08:07:47.699Z,13.28
2019-04-10T08:10:17.895Z,13.15
2019-04-10T08:12:52.120Z,13.25
2019-04-10T08:15:18.941Z,13.07
2019-04-10T08:17:50.498Z,12.85
2019-04-10T08:20:18.748Z,12.72
2019-04-10T08:22:47.649Z,12.49
2019-04-10T08:25:19.040Z,12.11
2019-04-10T08:27:48.072Z,11.87
2019-04-10T08:30:17.466Z,11.73
2019-04-10T08:32:54.861Z,11.55
2019-04-10T08:35:17.438Z,11.49
2019-04-10T08:37:46.467Z,11.40
2019-04-10T08:40:15.813Z,11.25
2019-04-10T08:42:46.182Z,11.30
2019-04-10T08:45:16.697Z,11.38
2019-04-10T08:47:45.811Z,11.48
2019-04-10T08:50:14.756Z,11.57
2019-04-10T08:52:44.542Z,11.66
2019-04-10T08:55:13.591Z,11.72
2019-04-10T08:57:42.483Z,11.84
2019-04-10T09:00:12.261Z,11.84
2019-04-10T09:02:42.323Z,11.90
2019-04-10T09:05:11.321Z,11.99
2019-04-10T09:07:40.251Z,11.99
2019-04-10T09:10:12.330Z,12.03
2019-04-10T09:12:43.038Z,12.03
2019-04-10T09:15:11.971Z,12.09
2019-04-10T09:17:41.753Z,12.10
2019-04-10T09:20:10.904Z,12.18
2019-04-10T09:22:57.998Z,12.09
2019-04-10T09:25:11.142Z,12.19
2019-04-10T09:27:40.668Z,12.27
2019-04-10T09:30:10.902Z,12.41
2019-04-10T09:32:39.764Z,12.46
2019-04-10T09:35:08.925Z,12.72
2019-04-10T09:37:38.149Z,12.83
2019-04-10T09:40:08.152Z,13.10
2019-04-10T09:42:37.125Z,13.45
2019-04-10T09:45:09.308Z,13.73
2019-04-10T09:47:38.323Z,13.89
2019-04-10T09:50:11.443Z,14.10
2019-04-10T09:52:40.453Z,14.37
2019-04-10T09:55:10.290Z,14.42
2019-04-10T09:57:41.557Z,14.70
2019-04-10T10:00:11.023Z,14.79
2019-04-10T10:02:40.764Z,14.95
2019-04-10T10:05:10.490Z,15.03
2019-04-10T10:07:39.512Z,15.07
2019-04-10T10:10:08.843Z,15.42
2019-04-10T10:12:38.685Z,15.35
2019-04-10T10:15:11.406Z,15.50
2019-04-10T10:17:41.234Z,15.65
2019-04-10T10:20:15.471Z,15.88
2019-04-10T10:22:45.318Z,16.05
2019-04-10T10:25:15.230Z,16.18
2019-04-10T10:27:44.743Z,16.23
2019-04-10T10:30:15.711Z,16.27
2019-04-10T10:32:45.550Z,16.39
2019-04-10T10:35:14.742Z,16.40
2019-04-10T10:37:43.744Z,16.52
2019-04-10T10:40:17.148Z,16.54
2019-04-10T10:42:46.175Z,16.56
2019-04-10T10:45:18.661Z,16.58
2019-04-10T10:47:50.668Z,16.45
2019-04-10T10:50:19.491Z,16.53
2019-04-10T10:52:48.468Z,16.63
2019-04-10T10:55:17.865Z,16.62
2019-04-10T10:57:47.073Z,16.36
2019-04-10T11:00:16.992Z,16.42
2019-04-10T11:02:46.082Z,16.22
2019-04-10T11:05:15.135Z,16.45
2019-04-10T11:07:44.097Z,16.15
2019-04-10T11:10:13.341Z,16.09
2019-04-10T11:12:42.456Z,15.77
2019-04-10T11:15:12.337Z,16.10
2019-04-10T11:17:42.152Z,16.28
2019-04-10T11:20:12.609Z,16.35
2019-04-10T11:22:43.484Z,16.46
2019-04-10T11:25:15.686Z,16.48
2019-04-10T11:27:44.686Z,16.46
2019-04-10T11:30:22.494Z,16.74
2019-04-10T11:32:52.452Z,16.80
2019-04-10T11:35:21.918Z,16.86
2019-04-10T11:37:53.695Z,16.76
2019-04-10T11:40:23.556Z,16.90
2019-04-10T11:42:53.795Z,16.99
2019-04-10T11:45:25.441Z,16.91
2019-04-10T11:47:53.723Z,16.73
2019-04-10T11:50:25.301Z,16.79
2019-04-10T11:52:59.728Z,16.72
2019-04-10T11:55:29.774Z,16.67
2019-04-10T11:57:59.967Z,16.62
2019-04-10T12:00:52.538Z,16.51
2019-04-10T12:03:22.084Z,16.43
2019-04-10T12:05:51.917Z,16.46
2019-04-10T12:08:45.258Z,16.60
2019-04-10T12:11:11.040Z,16.65
2019-04-10T12:13:24.140Z,16.65
2019-04-10T12:15:56.696Z,16.64
2019-04-10T12:18:26.764Z,16.28
2019-04-10T12:20:56.137Z,16.51
2019-04-10T12:23:29.165Z,16.54
2019-04-10T12:25:59.068Z,16.65
2019-04-10T12:28:28.253Z,16.72
2019-04-10T12:31:00.404Z,16.76
2019-04-10T12:33:29.708Z,16.62
2019-04-10T12:35:58.871Z,16.55
2019-04-10T12:38:28.012Z,16.44
2019-04-10T12:40:57.402Z,16.25
2019-04-10T12:43:27.330Z,16.16
2019-04-10T12:45:56.861Z,16.16
2019-04-10T12:48:26.395Z,16.14
2019-04-10T12:50:55.662Z,16.05
2019-04-10T12:53:24.969Z,16.02
2019-04-10T12:55:54.205Z,16.00
2019-04-10T12:58:23.584Z,16.02
2019-04-10T13:00:58.298Z,15.95
2019-04-10T13:03:35.543Z,15.97
2019-04-10T13:06:09.596Z,16.01
2019-04-10T13:08:53.440Z,16.08
2019-04-10T13:11:07.823Z,16.08
2019-04-10T13:13:44.250Z,16.05
2019-04-10T13:16:16.289Z,16.07
2019-04-10T13:18:45.473Z,16.17
2019-04-10T13:21:14.721Z,16.24
2019-04-10T13:23:44.761Z,16.30
2019-04-10T13:26:20.008Z,16.26
2019-04-10T13:28:49.794Z,16.32
2019-04-10T13:31:23.558Z,16.11
2019-04-10T13:33:53.122Z,16.05
2019-04-10T13:36:22.278Z,16.06
2019-04-10T13:38:51.286Z,15.97
2019-04-10T13:41:20.739Z,15.61
2019-04-10T13:43:50.140Z,15.54
2019-04-10T13:46:22.224Z,15.46
2019-04-10T13:59:57.530Z,14.84
2019-04-10T14:02:37.817Z,14.63
2019-04-10T14:05:11.675Z,14.53
2019-04-10T14:07:44.300Z,14.49
2019-04-10T14:10:14.636Z,14.36
2019-04-10T14:12:45.226Z,14.04
2019-04-10T14:15:14.387Z,14.03
2019-04-10T14:17:43.864Z,13.62
2019-04-10T14:20:26.963Z,13.57
2019-04-10T14:26:02.432Z,13.42
2019-04-10T14:28:37.421Z,13.32
2019-04-10T14:31:16.178Z,13.39
2019-04-10T14:33:44.852Z,13.40
2019-04-10T14:36:17.986Z,13.46
2019-04-10T14:41:26.129Z,13.54
2019-04-10T14:43:55.664Z,13.53
2019-04-10T14:46:32.444Z,13.51
2019-04-10T14:51:37.357Z,13.52
2019-04-10T14:54:15.564Z,13.48
2019-04-10T14:56:48.457Z,13.56
2019-04-10T14:59:19.828Z,13.52
2019-04-10T15:01:49.082Z,13.55
2019-04-10T15:04:19.333Z,13.56
2019-04-10T15:06:50.568Z,13.46
2019-04-10T15:09:25.894Z,13.42
2019-04-10T15:11:55.279Z,13.42
2019-04-10T15:14:25.854Z,13.36
2019-04-10T15:17:04.397Z,13.36
2019-04-10T15:19:34.369Z,13.29
2019-04-10T15:22:09.445Z,13.22
2019-04-10T15:24:39.729Z,13.12
2019-04-10T15:27:08.999Z,13.14
2019-04-10T15:29:49.138Z,13.00
2019-04-10T15:32:16.716Z,13.03
2019-04-10T15:34:52.235Z,12.95
2019-04-10T15:37:22.681Z,12.91
2019-04-10T15:39:53.952Z,12.90
2019-04-10T15:42:23.849Z,12.85
2019-04-10T15:44:58.874Z,12.83
2019-04-10T15:47:33.407Z,12.80
2019-04-10T15:50:03.832Z,12.82
2019-04-10T15:52:33.407Z,12.71
2019-04-10T15:55:04.168Z,12.76
2019-04-10T18:15:44.526Z,10.97
2019-04-10T18:50:34.819Z,10.55
2019-04-10T18:53:33.092Z,10.54
2019-04-10T18:56:06.982Z,10.52
2019-04-10T18:58:41.616Z,10.52
2019-04-10T19:01:29.908Z,10.55
2019-04-10T19:04:16.882Z,10.68
2019-04-10T19:07:01.256Z,10.59
2019-04-10T19:09:36.795Z,10.54
2019-04-10T19:12:08.562Z,10.56
2019-04-10T19:14:44.732Z,10.49
2019-04-10T19:17:14.847Z,10.46
2019-04-10T19:19:45.900Z,10.44
2019-04-10T19:22:16.481Z,10.42
2019-04-10T19:24:47.752Z,10.41
2019-04-10T19:27:18.308Z,10.40
2019-04-10T19:29:51.514Z,10.39
2019-04-10T19:32:31.280Z,10.37
2019-04-10T19:35:04.654Z,10.36
2019-04-10T19:37:36.746Z,10.33
2019-04-10T19:40:07.281Z,10.35
2019-04-10T19:42:37.647Z,10.32
2019-04-10T19:45:07.868Z,10.32
2019-04-10T19:47:39.988Z,10.29
2019-04-10T19:50:17.315Z,10.31
2019-04-10T19:52:47.089Z,10.28
2019-04-10T19:55:17.499Z,10.30
2019-04-10T19:57:47.835Z,10.30
2019-04-10T20:00:18.722Z,10.28
2019-04-10T20:02:49.436Z,10.24
2019-04-10T20:05:21.596Z,10.24
2019-04-10T20:07:53.369Z,10.25
2019-04-10T20:10:23.442Z,10.26
2019-04-10T20:12:55.558Z,10.23
2019-04-10T20:15:26.868Z,10.21
2019-04-10T20:17:56.658Z,10.18
2019-04-10T20:20:25.661Z,10.19
2019-04-10T20:23:00.538Z,10.16
2019-04-10T20:25:30.327Z,10.10
2019-04-10T20:28:00.251Z,10.09
2019-04-10T20:30:31.044Z,10.10
2019-04-10T20:33:00.878Z,10.07
2019-04-10T20:35:29.881Z,10.07
2019-04-10T20:37:59.057Z,10.00
2019-04-10T20:40:28.218Z,10.00
2019-04-10T20:42:59.478Z,10.00
2019-04-10T20:45:34.205Z,9.93
2019-04-10T20:48:04.354Z,9.88
2019-04-10T20:50:39.668Z,9.86
2019-04-10T20:53:09.605Z,9.78
2019-04-10T20:55:38.640Z,9.75
2019-04-10T20:58:07.660Z,9.74
2019-04-10T21:00:41.029Z,9.66
2019-04-10T21:03:11.418Z,9.62
2019-04-10T21:05:40.461Z,9.52
2019-04-10T21:08:09.753Z,9.55
2019-04-10T21:10:38.764Z,9.51
2019-04-10T21:13:08.711Z,9.45
2019-04-10T21:15:37.718Z,9.38
2019-04-10T21:18:06.935Z,9.27
2019-04-10T21:20:37.130Z,9.24
2019-04-10T21:23:06.164Z,9.13
2019-04-10T21:25:35.187Z,9.08
2019-04-10T21:28:05.515Z,9.03
2019-04-10T21:30:47.299Z,8.96
2019-04-10T21:33:30.310Z,8.87
2019-04-10T21:35:59.726Z,8.84
2019-04-10T21:38:30.221Z,8.77
2019-04-10T21:40:59.499Z,8.67
2019-04-10T21:43:28.603Z,8.63
2019-04-10T21:45:57.593Z,8.57
2019-04-10T21:48:27.579Z,8.47
2019-04-10T21:50:58.515Z,8.40
2019-04-10T21:53:31.191Z,8.31
2019-04-10T21:56:00.162Z,8.27
2019-04-10T21:58:30.216Z,8.20
2019-04-10T22:01:05.512Z,8.10
2019-04-10T22:03:34.428Z,8.00
2019-04-10T22:06:18.196Z,7.98
2019-04-10T22:08:56.319Z,7.91
2019-04-10T22:11:25.487Z,7.82
2019-04-10T22:13:54.796Z,7.80
2019-04-10T22:16:26.101Z,7.71
2019-04-10T22:18:56.173Z,7.63
2019-04-10T22:21:24.968Z,7.58
2019-04-10T22:23:53.798Z,7.46
2019-04-10T22:26:22.709Z,7.38
2019-04-10T22:28:52.676Z,7.37
2019-04-10T22:31:21.596Z,7.34
2019-04-10T22:33:50.485Z,7.24
2019-04-10T22:36:19.313Z,7.17
2019-04-10T22:38:49.701Z,7.15
2019-04-10T22:41:26.441Z,7.08
2019-04-10T22:43:49.287Z,7.00
2019-04-10T22:46:19.212Z,6.94
2019-04-10T22:48:48.107Z,6.94
2019-04-10T22:51:17.214Z,7.00
2019-04-10T22:53:46.005Z,6.88
2019-04-10T22:56:15.062Z,6.76
2019-04-10T22:58:44.219Z,6.76
2019-04-10T23:01:13.220Z,6.76
2019-04-10T23:03:43.172Z,6.74
2019-04-10T23:06:13.174Z,6.67
2019-04-10T23:08:42.169Z,6.66
2019-04-10T23:11:11.060Z,6.65
2019-04-10T23:13:40.437Z,6.62
2019-04-10T23:16:09.597Z,6.67
2019-04-10T23:18:39.297Z,6.68
2019-04-10T23:21:08.223Z,6.71
2019-04-10T23:23:37.063Z,6.71
2019-04-10T23:26:06.920Z,6.69
2019-04-10T23:28:35.808Z,6.70
2019-04-10T23:31:05.716Z,6.69
2019-04-10T23:33:34.628Z,6.71
2019-04-10T23:36:03.610Z,6.72
2019-04-10T23:38:33.242Z,6.72
2019-04-10T23:41:02.108Z,6.64
2019-04-10T23:43:31.478Z,6.62
2019-04-10T23:46:00.278Z,6.61
2019-04-10T23:48:30.798Z,6.62
2019-04-10T23:51:00.772Z,6.60
2019-04-10T23:53:30.787Z,6.54
2019-04-10T23:55:59.711Z,6.55
2019-04-10T23:58:29.685Z,6.48
